LOT5N KJFK-EPWA
Flight info
| Callsign | LOT5N |
|---|---|
| Flight time | 7h 55m |
| Altitude | 37000 |
| Route | GREKI DCT JUDDS DCT MARTN DCT EBONY N505B ALLRY/M083F390 DCT 51N050W 53N040W 55N030W 56N020W DCT PIKIL DCT SOVED DCT LUTOV DCT REMSI/N0483F410 DCT BELOX L603 LAMSO DCT AMSAN DCT ROBEG DCT HLZ DCT SUBIX L980 BAREP DCT DIPKI P150 BIMPA |
| Aircraft | B772/H-SDE2E3FGHIJ5LORVWXY/LB1D1 |
Departure
| Time | 2026-05-04 08:06 |
|---|---|
| Airport | John F. Kennedy International Airport (KJFK) |
Arrival
| Time | 2026-05-04 16:01 |
|---|---|
| Airport | Warsaw Chopin Airport (EPWA) |
| Time | Latitude | Longitude | Altitude | Speed | Heading |
|---|---|---|---|---|---|
| 2026-05-04 07:13 | 40.64209 | -73.79076 | 25 ft | 0 kts | 336° |
| 2026-05-04 07:54 | 40.64200 | -73.79071 | 25 ft | 2 kts | 332° |
| 2026-05-04 07:55 | 40.64185 | -73.79060 | 26 ft | 2 kts | 327° |
| 2026-05-04 07:55 | 40.64172 | -73.79047 | 29 ft | 2 kts | 310° |
| 2026-05-04 07:55 | 40.64165 | -73.79028 | 30 ft | 2 kts | 257° |
| 2026-05-04 07:55 | 40.64171 | -73.79013 | 30 ft | 1 kts | 226° |
| 2026-05-04 07:56 | 40.64173 | -73.79011 | 29 ft | 0 kts | 224° |
| 2026-05-04 07:58 | 40.64163 | -73.79023 | 30 ft | 7 kts | 224° |
| 2026-05-04 07:58 | 40.64126 | -73.79070 | 30 ft | 7 kts | 224° |
| 2026-05-04 07:59 | 40.64080 | -73.79130 | 28 ft | 10 kts | 224° |
| 2026-05-04 07:59 | 40.64031 | -73.79192 | 29 ft | 4 kts | 224° |
| 2026-05-04 08:00 | 40.64006 | -73.79223 | 28 ft | 12 kts | 224° |
| 2026-05-04 08:00 | 40.63949 | -73.79295 | 27 ft | 7 kts | 224° |
| 2026-05-04 08:02 | 40.63643 | -73.78756 | 26 ft | 13 kts | 121° |
| 2026-05-04 08:02 | 40.63595 | -73.78650 | 26 ft | 13 kts | 121° |
| 2026-05-04 08:02 | 40.63547 | -73.78544 | 27 ft | 13 kts | 121° |
| 2026-05-04 08:03 | 40.63499 | -73.78438 | 32 ft | 13 kts | 121° |
| 2026-05-04 08:03 | 40.63460 | -73.78353 | 31 ft | 0 kts | 120° |
| 2026-05-04 08:03 | 40.63440 | -73.78308 | 28 ft | 13 kts | 120° |
| 2026-05-04 08:03 | 40.63385 | -73.78184 | 32 ft | 13 kts | 120° |
| 2026-05-04 08:04 | 40.63342 | -73.78083 | 29 ft | 13 kts | 112° |
| 2026-05-04 08:04 | 40.63312 | -73.77990 | 32 ft | 9 kts | 153° |
| 2026-05-04 08:04 | 40.63249 | -73.78004 | 28 ft | 9 kts | 195° |
| 2026-05-04 08:04 | 40.63201 | -73.78043 | 28 ft | 8 kts | 254° |
| 2026-05-04 08:05 | 40.63224 | -73.78112 | 26 ft | 12 kts | 301° |
| 2026-05-04 08:05 | 40.63357 | -73.78407 | 30 ft | 69 kts | 301° |
| 2026-05-04 08:05 | 40.63714 | -73.79195 | 29 ft | 129 kts | 301° |
| 2026-05-04 08:05 | 40.64260 | -73.80383 | 124 ft | 164 kts | 299° |
| 2026-05-04 08:06 | 40.64859 | -73.81674 | 769 ft | 166 kts | 298° |
| 2026-05-04 08:06 | 40.65452 | -73.82939 | 1686 ft | 154 kts | 294° |
| 2026-05-04 08:06 | 40.65654 | -73.84266 | 2109 ft | 161 kts | 257° |
| 2026-05-04 08:06 | 40.64916 | -73.85466 | 2195 ft | 189 kts | 216° |
| 2026-05-04 08:08 | 40.55031 | -73.86318 | 4633 ft | 269 kts | 160° |
| 2026-05-04 08:08 | 40.53283 | -73.85409 | 5103 ft | 270 kts | 166° |
| 2026-05-04 08:10 | 40.58712 | -73.72618 | 9441 ft | 290 kts | 14° |
| 2026-05-04 08:11 | 40.60644 | -73.71793 | 9993 ft | 293 kts | 14° |
| 2026-05-04 08:11 | 40.64683 | -73.70041 | 10484 ft | 324 kts | 14° |
| 2026-05-04 08:11 | 40.66886 | -73.69068 | 10652 ft | 345 kts | 15° |
| 2026-05-04 08:12 | 40.69228 | -73.68019 | 10821 ft | 365 kts | 15° |
| 2026-05-04 08:12 | 40.71677 | -73.66908 | 11279 ft | 378 kts | 15° |
| 2026-05-04 08:12 | 40.74191 | -73.65758 | 11911 ft | 386 kts | 15° |
| 2026-05-04 08:12 | 40.76743 | -73.64585 | 12764 ft | 390 kts | 15° |
| 2026-05-04 08:13 | 40.79320 | -73.63395 | 13683 ft | 394 kts | 14° |
| 2026-05-04 08:13 | 40.81040 | -73.62601 | 14179 ft | 398 kts | 14° |
| 2026-05-04 08:13 | 40.83667 | -73.61389 | 15019 ft | 402 kts | 14° |
| 2026-05-04 08:13 | 40.87178 | -73.59767 | 16155 ft | 406 kts | 14° |
| 2026-05-04 08:14 | 40.88982 | -73.58934 | 16724 ft | 408 kts | 14° |
| 2026-05-04 08:14 | 40.91677 | -73.57689 | 17564 ft | 412 kts | 14° |
| 2026-05-04 08:14 | 40.95290 | -73.56017 | 18601 ft | 418 kts | 14° |
| 2026-05-04 08:16 | 41.14262 | -73.47210 | 23101 ft | 448 kts | 13° |
| 2026-05-04 08:16 | 41.17222 | -73.45830 | 23673 ft | 453 kts | 13° |
| 2026-05-04 08:16 | 41.20209 | -73.44436 | 24189 ft | 457 kts | 14° |
| 2026-05-04 08:17 | 41.23215 | -73.43032 | 24720 ft | 459 kts | 14° |
| 2026-05-04 08:17 | 41.26237 | -73.41618 | 25229 ft | 462 kts | 14° |
| 2026-05-04 08:17 | 41.29282 | -73.40193 | 25682 ft | 465 kts | 14° |
| 2026-05-04 08:17 | 41.32351 | -73.38755 | 26123 ft | 469 kts | 14° |
| 2026-05-04 08:19 | 41.53176 | -73.24811 | 28863 ft | 510 kts | 42° |
| 2026-05-04 08:19 | 41.55613 | -73.21361 | 29150 ft | 512 kts | 41° |
| 2026-05-04 08:20 | 41.58109 | -73.17947 | 29434 ft | 514 kts | 40° |
| 2026-05-04 08:20 | 41.60732 | -73.14764 | 29552 ft | 507 kts | 30° |
| 2026-05-04 08:20 | 41.63836 | -73.12634 | 29637 ft | 497 kts | 12° |
| 2026-05-04 08:20 | 41.67178 | -73.11674 | 29959 ft | 486 kts | 359° |
| 2026-05-04 08:21 | 41.70497 | -73.11708 | 30298 ft | 470 kts | 347° |
| 2026-05-04 08:21 | 41.73737 | -73.12305 | 30452 ft | 472 kts | 346° |
| 2026-05-04 08:21 | 41.76990 | -73.12935 | 30702 ft | 472 kts | 346° |
| 2026-05-04 08:21 | 41.80247 | -73.13552 | 31059 ft | 471 kts | 346° |
| 2026-05-04 08:22 | 41.83489 | -73.14145 | 31385 ft | 470 kts | 346° |
| 2026-05-04 08:22 | 41.86733 | -73.14720 | 31646 ft | 471 kts | 346° |
| 2026-05-04 08:24 | 42.09538 | -73.18617 | 33501 ft | 474 kts | 346° |
| 2026-05-04 08:24 | 42.12817 | -73.19178 | 33756 ft | 474 kts | 346° |
| 2026-05-04 08:24 | 42.16086 | -73.19739 | 34009 ft | 474 kts | 346° |
| 2026-05-04 08:24 | 42.19372 | -73.20304 | 34225 ft | 475 kts | 346° |
| 2026-05-04 08:25 | 42.22655 | -73.20869 | 34428 ft | 475 kts | 346° |
| 2026-05-04 08:25 | 42.25940 | -73.21434 | 34630 ft | 476 kts | 346° |
| 2026-05-04 08:25 | 42.29239 | -73.22003 | 34835 ft | 476 kts | 346° |
| 2026-05-04 08:25 | 42.32485 | -73.22562 | 35063 ft | 477 kts | 346° |
| 2026-05-04 08:26 | 42.35779 | -73.23130 | 35300 ft | 477 kts | 346° |
| 2026-05-04 08:27 | 42.58743 | -73.22881 | 36581 ft | 513 kts | 32° |
| 2026-05-04 08:28 | 42.61367 | -73.19554 | 36834 ft | 521 kts | 49° |
| 2026-05-04 08:28 | 42.63314 | -73.15390 | 36905 ft | 524 kts | 58° |
| 2026-05-04 08:28 | 42.66802 | -73.06691 | 36938 ft | 529 kts | 59° |
| 2026-05-04 08:29 | 42.70342 | -72.97908 | 36929 ft | 529 kts | 58° |
| 2026-05-04 08:31 | 42.84815 | -72.63005 | 36918 ft | 528 kts | 58° |
| 2026-05-04 08:33 | 42.99094 | -72.28202 | 36919 ft | 525 kts | 58° |
| 2026-05-04 08:35 | 43.13272 | -71.93227 | 36901 ft | 526 kts | 59° |
| 2026-05-04 08:35 | 43.16804 | -71.84449 | 36910 ft | 526 kts | 59° |
| 2026-05-04 08:37 | 43.29129 | -71.53600 | 36888 ft | 526 kts | 59° |
| 2026-05-04 08:38 | 43.32612 | -71.44822 | 36894 ft | 526 kts | 59° |
| 2026-05-04 08:38 | 43.36108 | -71.35984 | 36895 ft | 526 kts | 59° |
| 2026-05-04 08:40 | 43.50011 | -71.00563 | 36877 ft | 525 kts | 59° |
| 2026-05-04 08:41 | 43.53466 | -70.91691 | 36881 ft | 525 kts | 59° |
| 2026-05-04 08:41 | 43.56910 | -70.82821 | 36898 ft | 524 kts | 60° |
| 2026-05-04 08:42 | 43.60345 | -70.73946 | 36874 ft | 524 kts | 60° |
| 2026-05-04 08:42 | 43.63768 | -70.65072 | 36870 ft | 523 kts | 60° |
| 2026-05-04 08:43 | 43.67183 | -70.56192 | 36867 ft | 523 kts | 60° |
| 2026-05-04 08:43 | 43.70570 | -70.47356 | 36871 ft | 522 kts | 60° |
| 2026-05-04 08:44 | 43.73967 | -70.38470 | 36866 ft | 522 kts | 60° |
| 2026-05-04 08:46 | 43.87457 | -70.02891 | 36872 ft | 522 kts | 61° |
| 2026-05-04 08:46 | 43.90817 | -69.93958 | 36873 ft | 522 kts | 61° |
| 2026-05-04 08:47 | 43.94177 | -69.84997 | 36882 ft | 523 kts | 61° |
| 2026-05-04 08:47 | 43.97527 | -69.76034 | 36878 ft | 523 kts | 61° |
| 2026-05-04 08:48 | 44.00864 | -69.67074 | 36868 ft | 522 kts | 62° |
| 2026-05-04 08:48 | 44.04195 | -69.58104 | 36870 ft | 522 kts | 61° |
| 2026-05-04 08:49 | 44.07499 | -69.49180 | 36867 ft | 522 kts | 62° |
| 2026-05-04 08:50 | 44.19101 | -69.17605 | 36853 ft | 523 kts | 62° |
| 2026-05-04 08:51 | 44.22403 | -69.08554 | 36848 ft | 523 kts | 62° |
| 2026-05-04 08:51 | 44.25679 | -68.99541 | 36841 ft | 523 kts | 62° |
| 2026-05-04 08:52 | 44.28961 | -68.90486 | 36837 ft | 522 kts | 62° |
| 2026-05-04 08:52 | 44.32232 | -68.81427 | 36828 ft | 522 kts | 62° |
| 2026-05-04 08:54 | 44.45215 | -68.45183 | 36819 ft | 521 kts | 62° |
| 2026-05-04 08:55 | 44.48442 | -68.36098 | 36830 ft | 521 kts | 63° |
| 2026-05-04 08:55 | 44.51668 | -68.26988 | 36817 ft | 521 kts | 63° |
| 2026-05-04 09:01 | 44.84478 | -67.32522 | 36764 ft | 520 kts | 63° |
| 2026-05-04 09:01 | 44.87593 | -67.23383 | 36776 ft | 520 kts | 64° |
| 2026-05-04 09:02 | 44.90842 | -67.14266 | 36746 ft | 520 kts | 58° |
| 2026-05-04 09:02 | 44.94840 | -67.05787 | 36748 ft | 518 kts | 54° |
| 2026-05-04 09:03 | 44.98947 | -66.97395 | 36745 ft | 518 kts | 54° |
| 2026-05-04 09:03 | 45.02993 | -66.89036 | 36731 ft | 518 kts | 54° |
| 2026-05-04 09:04 | 45.07034 | -66.80583 | 36715 ft | 518 kts | 55° |
| 2026-05-04 09:04 | 45.11054 | -66.72118 | 36708 ft | 518 kts | 55° |
| 2026-05-04 09:05 | 45.15074 | -66.63627 | 36713 ft | 518 kts | 55° |
| 2026-05-04 09:05 | 45.19060 | -66.55189 | 36690 ft | 518 kts | 55° |
| 2026-05-04 09:06 | 45.23071 | -66.46678 | 36686 ft | 518 kts | 55° |
| 2026-05-04 09:08 | 45.39027 | -66.12559 | 36637 ft | 518 kts | 56° |
| 2026-05-04 09:08 | 45.43003 | -66.03993 | 36637 ft | 518 kts | 56° |
| 2026-05-04 09:09 | 45.46942 | -65.95483 | 36629 ft | 518 kts | 56° |
| 2026-05-04 09:09 | 45.50901 | -65.86901 | 36637 ft | 518 kts | 56° |
| 2026-05-04 09:10 | 45.54865 | -65.78282 | 36627 ft | 519 kts | 56° |
| 2026-05-04 09:10 | 45.58821 | -65.69657 | 36633 ft | 519 kts | 56° |
| 2026-05-04 09:11 | 45.62747 | -65.61070 | 36620 ft | 519 kts | 56° |
| 2026-05-04 09:11 | 45.66689 | -65.52421 | 36616 ft | 518 kts | 56° |
| 2026-05-04 09:12 | 45.70622 | -65.43765 | 36591 ft | 518 kts | 56° |
| 2026-05-04 09:14 | 45.86216 | -65.09183 | 36566 ft | 517 kts | 57° |
| 2026-05-04 09:14 | 45.90081 | -65.00546 | 36561 ft | 517 kts | 57° |
| 2026-05-04 09:15 | 45.93956 | -64.91859 | 36547 ft | 516 kts | 57° |
| 2026-05-04 09:15 | 45.97823 | -64.83165 | 36543 ft | 515 kts | 57° |
| 2026-05-04 09:17 | 46.15120 | -64.43937 | 36516 ft | 517 kts | 57° |
| 2026-05-04 09:18 | 46.18957 | -64.35160 | 36512 ft | 517 kts | 57° |
| 2026-05-04 09:18 | 46.22788 | -64.26368 | 36480 ft | 517 kts | 57° |
| 2026-05-04 09:19 | 46.26617 | -64.17554 | 36457 ft | 518 kts | 57° |
| 2026-05-04 09:19 | 46.30451 | -64.08702 | 36454 ft | 520 kts | 58° |
| 2026-05-04 09:20 | 46.34282 | -63.99826 | 36439 ft | 522 kts | 57° |
| 2026-05-04 09:20 | 46.38094 | -63.90964 | 36411 ft | 518 kts | 58° |
| 2026-05-04 09:21 | 46.41879 | -63.82139 | 36412 ft | 514 kts | 57° |
| 2026-05-04 09:21 | 46.45665 | -63.73283 | 36407 ft | 518 kts | 58° |
| 2026-05-04 09:22 | 46.49470 | -63.64356 | 36388 ft | 523 kts | 58° |
| 2026-05-04 09:22 | 46.53285 | -63.55375 | 36383 ft | 528 kts | 58° |
| 2026-05-04 09:23 | 46.57140 | -63.46271 | 36373 ft | 529 kts | 58° |
| 2026-05-04 09:23 | 46.60975 | -63.37184 | 36357 ft | 523 kts | 58° |
| 2026-05-04 09:25 | 46.75941 | -63.01429 | 36285 ft | 523 kts | 59° |
| 2026-05-04 09:26 | 46.79717 | -62.92334 | 36279 ft | 521 kts | 59° |
| 2026-05-04 09:26 | 46.83453 | -62.83308 | 36257 ft | 518 kts | 59° |
| 2026-05-04 09:27 | 46.87160 | -62.74325 | 36273 ft | 515 kts | 59° |
| 2026-05-04 09:27 | 46.90847 | -62.65353 | 36236 ft | 519 kts | 60° |
| 2026-05-04 09:28 | 46.94572 | -62.56259 | 36234 ft | 522 kts | 60° |
| 2026-05-04 09:28 | 46.98310 | -62.47108 | 36221 ft | 525 kts | 60° |
| 2026-05-04 09:29 | 47.02046 | -62.37934 | 36198 ft | 520 kts | 61° |
| 2026-05-04 09:29 | 47.05712 | -62.28898 | 36173 ft | 512 kts | 61° |
| 2026-05-04 09:30 | 47.09321 | -62.19969 | 36180 ft | 511 kts | 60° |
| 2026-05-04 09:30 | 47.12961 | -62.10938 | 36178 ft | 516 kts | 61° |
| 2026-05-04 09:31 | 47.16631 | -62.01799 | 36158 ft | 517 kts | 60° |
| 2026-05-04 09:31 | 47.20262 | -61.92731 | 36128 ft | 512 kts | 61° |
| 2026-05-04 09:32 | 47.23866 | -61.83700 | 36118 ft | 511 kts | 61° |
| 2026-05-04 09:34 | 47.38182 | -61.47518 | 36105 ft | 511 kts | 62° |
| 2026-05-04 09:34 | 47.41752 | -61.38420 | 36060 ft | 511 kts | 62° |
| 2026-05-04 09:35 | 47.45291 | -61.29371 | 36067 ft | 512 kts | 62° |
| 2026-05-04 09:35 | 47.48849 | -61.20239 | 36063 ft | 513 kts | 62° |
| 2026-05-04 09:37 | 47.63045 | -60.83505 | 36050 ft | 513 kts | 63° |
| 2026-05-04 09:38 | 47.66543 | -60.74376 | 36049 ft | 512 kts | 63° |
| 2026-05-04 09:38 | 47.70055 | -60.65179 | 36015 ft | 511 kts | 63° |
| 2026-05-04 09:39 | 47.73557 | -60.55978 | 36021 ft | 510 kts | 63° |
| 2026-05-04 09:39 | 47.77045 | -60.46777 | 36038 ft | 511 kts | 63° |
| 2026-05-04 09:40 | 47.80532 | -60.37548 | 36029 ft | 512 kts | 63° |
| 2026-05-04 09:40 | 47.83998 | -60.28346 | 36029 ft | 513 kts | 64° |
| 2026-05-04 09:42 | 47.97890 | -59.91136 | 36030 ft | 512 kts | 64° |
| 2026-05-04 09:43 | 48.01309 | -59.81898 | 36060 ft | 511 kts | 64° |
| 2026-05-04 09:43 | 48.04739 | -59.72597 | 36066 ft | 510 kts | 64° |
| 2026-05-04 09:44 | 48.08157 | -59.63295 | 36067 ft | 510 kts | 65° |
| 2026-05-04 09:46 | 48.21797 | -59.25845 | 36106 ft | 514 kts | 65° |
| 2026-05-04 09:46 | 48.25203 | -59.16412 | 36088 ft | 513 kts | 65° |
| 2026-05-04 09:47 | 48.28589 | -59.07000 | 36119 ft | 512 kts | 65° |
| 2026-05-04 09:49 | 48.41445 | -58.70944 | 36139 ft | 512 kts | 66° |
| 2026-05-04 09:51 | 48.53175 | -58.37609 | 36167 ft | 517 kts | 67° |
| 2026-05-04 09:51 | 48.56523 | -58.28020 | 36179 ft | 514 kts | 67° |
| 2026-05-04 09:52 | 48.59841 | -58.18479 | 36192 ft | 512 kts | 67° |
| 2026-05-04 09:52 | 48.63142 | -58.08948 | 36191 ft | 510 kts | 67° |
| 2026-05-04 09:53 | 48.66422 | -57.99442 | 36196 ft | 508 kts | 67° |
| 2026-05-04 09:53 | 48.69662 | -57.90022 | 36181 ft | 507 kts | 68° |
| 2026-05-04 09:54 | 48.72907 | -57.80551 | 36213 ft | 505 kts | 68° |
| 2026-05-04 09:54 | 48.76139 | -57.71078 | 36227 ft | 505 kts | 68° |
| 2026-05-04 09:55 | 48.79353 | -57.61625 | 36231 ft | 505 kts | 68° |
| 2026-05-04 09:55 | 48.82550 | -57.52186 | 36225 ft | 505 kts | 68° |
| 2026-05-04 09:56 | 48.85754 | -57.42699 | 36235 ft | 505 kts | 68° |
| 2026-05-04 09:56 | 48.88954 | -57.33185 | 36241 ft | 505 kts | 68° |
| 2026-05-04 09:57 | 48.92147 | -57.23654 | 36230 ft | 505 kts | 68° |
| 2026-05-04 09:57 | 48.95327 | -57.14133 | 36242 ft | 504 kts | 69° |
| 2026-05-04 09:58 | 48.98476 | -57.04666 | 36236 ft | 503 kts | 69° |
| 2026-05-04 09:58 | 49.01628 | -56.95151 | 36244 ft | 503 kts | 69° |
| 2026-05-04 10:00 | 49.14133 | -56.57052 | 36294 ft | 502 kts | 69° |
| 2026-05-04 10:04 | 49.35695 | -55.89983 | 36327 ft | 503 kts | 70° |
| 2026-05-04 10:04 | 49.38756 | -55.80310 | 36333 ft | 504 kts | 70° |
| 2026-05-04 10:05 | 49.41797 | -55.70665 | 36330 ft | 505 kts | 71° |
| 2026-05-04 10:05 | 49.44857 | -55.60929 | 36318 ft | 505 kts | 71° |
| 2026-05-04 10:06 | 49.47903 | -55.51198 | 36338 ft | 504 kts | 71° |
| 2026-05-04 10:06 | 49.50934 | -55.41469 | 36352 ft | 504 kts | 71° |
| 2026-05-04 10:08 | 49.61427 | -55.07507 | 36331 ft | 500 kts | 71° |
| 2026-05-04 10:08 | 49.64401 | -54.97788 | 36371 ft | 502 kts | 71° |
| 2026-05-04 10:09 | 49.67379 | -54.88020 | 36379 ft | 503 kts | 71° |
| 2026-05-04 10:09 | 49.70357 | -54.78216 | 36375 ft | 504 kts | 71° |
| 2026-05-04 10:10 | 49.73327 | -54.68403 | 36383 ft | 504 kts | 71° |
| 2026-05-04 10:10 | 49.76289 | -54.58575 | 36405 ft | 504 kts | 72° |
| 2026-05-04 10:11 | 49.79238 | -54.48749 | 36411 ft | 503 kts | 72° |
| 2026-05-04 10:11 | 49.82175 | -54.38926 | 36387 ft | 502 kts | 72° |
| 2026-05-04 10:12 | 49.85080 | -54.29169 | 36437 ft | 501 kts | 72° |
| 2026-05-04 10:12 | 49.87992 | -54.19347 | 36441 ft | 501 kts | 72° |
| 2026-05-04 10:13 | 49.90895 | -54.09515 | 36448 ft | 501 kts | 72° |
| 2026-05-04 10:13 | 49.93791 | -53.99664 | 36465 ft | 502 kts | 72° |
| 2026-05-04 10:14 | 49.96686 | -53.89778 | 36476 ft | 503 kts | 73° |
| 2026-05-04 10:16 | 50.08219 | -53.49997 | 36504 ft | 505 kts | 73° |
| 2026-05-04 10:16 | 50.11083 | -53.40017 | 36515 ft | 504 kts | 73° |
| 2026-05-04 10:17 | 50.13917 | -53.30098 | 36523 ft | 504 kts | 73° |
| 2026-05-04 10:19 | 50.25254 | -52.89986 | 36552 ft | 508 kts | 74° |
| 2026-05-04 10:19 | 50.28074 | -52.79902 | 36551 ft | 510 kts | 74° |
| 2026-05-04 10:20 | 50.30920 | -52.69685 | 36556 ft | 512 kts | 74° |
| 2026-05-04 10:20 | 50.33758 | -52.59454 | 36571 ft | 512 kts | 74° |
| 2026-05-04 10:21 | 50.36584 | -52.49220 | 36578 ft | 512 kts | 74° |
| 2026-05-04 10:21 | 50.39401 | -52.38977 | 36569 ft | 511 kts | 74° |
| 2026-05-04 10:22 | 50.43598 | -52.23624 | 36559 ft | 510 kts | 74° |
| 2026-05-04 10:23 | 50.46358 | -52.13468 | 36584 ft | 510 kts | 74° |
| 2026-05-04 10:25 | 50.57265 | -51.72049 | 37640 ft | 513 kts | 74° |
| 2026-05-04 10:25 | 50.58604 | -51.66836 | 37826 ft | 514 kts | 74° |
| 2026-05-04 10:25 | 50.59945 | -51.61615 | 38047 ft | 514 kts | 74° |
| 2026-05-04 10:25 | 50.61286 | -51.56394 | 38267 ft | 514 kts | 74° |
| 2026-05-04 10:26 | 50.62623 | -51.51171 | 38460 ft | 514 kts | 74° |
| 2026-05-04 10:26 | 50.63961 | -51.45936 | 38563 ft | 516 kts | 74° |
| 2026-05-04 10:26 | 50.65300 | -51.40684 | 38603 ft | 517 kts | 74° |
| 2026-05-04 10:27 | 50.67959 | -51.30214 | 38658 ft | 515 kts | 73° |
| 2026-05-04 10:27 | 50.70614 | -51.19719 | 38672 ft | 514 kts | 74° |
| 2026-05-04 10:28 | 50.73250 | -51.09242 | 38653 ft | 513 kts | 74° |
| 2026-05-04 10:28 | 50.75863 | -50.98804 | 38688 ft | 515 kts | 74° |
| 2026-05-04 10:29 | 50.78492 | -50.88249 | 38687 ft | 517 kts | 73° |
| 2026-05-04 10:29 | 50.81121 | -50.77649 | 38709 ft | 519 kts | 73° |
| 2026-05-04 10:30 | 50.83750 | -50.67002 | 38712 ft | 520 kts | 73° |
| 2026-05-04 10:30 | 50.86375 | -50.56320 | 38722 ft | 521 kts | 73° |
| 2026-05-04 10:31 | 50.88982 | -50.45657 | 38731 ft | 521 kts | 73° |
| 2026-05-04 10:32 | 50.98030 | -50.08241 | 38747 ft | 518 kts | 73° |
| 2026-05-04 10:33 | 51.00594 | -49.97552 | 38740 ft | 519 kts | 73° |
| 2026-05-04 10:33 | 51.03262 | -49.86873 | 38771 ft | 521 kts | 72° |
| 2026-05-04 10:34 | 51.05982 | -49.76150 | 38780 ft | 524 kts | 72° |
| 2026-05-04 10:34 | 51.08695 | -49.65364 | 38788 ft | 526 kts | 72° |
| 2026-05-04 10:35 | 51.11393 | -49.54523 | 38794 ft | 528 kts | 72° |
| 2026-05-04 10:35 | 51.13630 | -49.45471 | 38787 ft | 529 kts | 72° |
| 2026-05-04 10:36 | 51.16759 | -49.32751 | 38808 ft | 530 kts | 72° |
| 2026-05-04 10:36 | 51.19442 | -49.21791 | 38805 ft | 530 kts | 72° |
| 2026-05-04 10:37 | 51.21664 | -49.12675 | 38815 ft | 530 kts | 72° |
| 2026-05-04 10:37 | 51.24323 | -49.01715 | 38815 ft | 529 kts | 72° |
| 2026-05-04 10:39 | 51.33534 | -48.63309 | 38837 ft | 531 kts | 73° |
| 2026-05-04 10:40 | 51.36157 | -48.52249 | 38846 ft | 531 kts | 73° |
| 2026-05-04 10:40 | 51.38769 | -48.41175 | 38846 ft | 531 kts | 73° |
| 2026-05-04 10:41 | 51.41368 | -48.30102 | 38854 ft | 531 kts | 73° |
| 2026-05-04 10:41 | 51.43959 | -48.19008 | 38863 ft | 530 kts | 73° |
| 2026-05-04 10:42 | 51.46530 | -48.07938 | 38850 ft | 529 kts | 73° |
| 2026-05-04 10:42 | 51.49089 | -47.96864 | 38869 ft | 529 kts | 73° |
| 2026-05-04 10:43 | 51.51635 | -47.85787 | 38876 ft | 529 kts | 73° |
| 2026-05-04 10:45 | 51.61731 | -47.41288 | 38904 ft | 533 kts | 72° |
| 2026-05-04 10:45 | 51.64246 | -47.30057 | 38905 ft | 533 kts | 73° |
| 2026-05-04 10:46 | 51.66751 | -47.18809 | 38917 ft | 534 kts | 73° |
| 2026-05-04 10:46 | 51.69247 | -47.07533 | 38922 ft | 534 kts | 72° |
| 2026-05-04 10:47 | 51.71740 | -46.96222 | 38922 ft | 534 kts | 72° |
| 2026-05-04 10:47 | 51.74215 | -46.84925 | 38939 ft | 534 kts | 72° |
| 2026-05-04 10:49 | 51.83999 | -46.39649 | 38964 ft | 534 kts | 72° |
| 2026-05-04 10:50 | 51.86408 | -46.28346 | 38984 ft | 535 kts | 72° |
| 2026-05-04 10:52 | 51.95975 | -45.82819 | 38999 ft | 533 kts | 72° |
| 2026-05-04 10:52 | 51.98333 | -45.71430 | 39015 ft | 532 kts | 71° |
| 2026-05-04 10:54 | 52.07636 | -45.25882 | 39035 ft | 532 kts | 71° |
| 2026-05-04 10:56 | 52.16747 | -44.80220 | 39059 ft | 529 kts | 71° |
| 2026-05-04 10:57 | 52.18992 | -44.68800 | 39079 ft | 527 kts | 70° |
| 2026-05-04 10:57 | 52.21214 | -44.57431 | 39067 ft | 525 kts | 70° |
| 2026-05-04 10:58 | 52.23406 | -44.46147 | 39077 ft | 524 kts | 70° |
| 2026-05-04 10:58 | 52.25595 | -44.34816 | 39083 ft | 523 kts | 70° |
| 2026-05-04 10:59 | 52.27771 | -44.23483 | 39087 ft | 523 kts | 70° |
| 2026-05-04 10:59 | 52.29939 | -44.12131 | 39104 ft | 524 kts | 70° |
| 2026-05-04 11:00 | 52.32098 | -44.00753 | 39100 ft | 525 kts | 70° |
| 2026-05-04 11:02 | 52.40624 | -43.55119 | 39124 ft | 521 kts | 71° |
| 2026-05-04 11:05 | 52.55905 | -42.70402 | 39186 ft | 516 kts | 71° |
| 2026-05-04 11:06 | 52.57900 | -42.59049 | 39176 ft | 517 kts | 71° |
| 2026-05-04 11:06 | 52.59887 | -42.47658 | 39183 ft | 518 kts | 71° |
| 2026-05-04 11:10 | 52.73561 | -41.67234 | 39231 ft | 523 kts | 72° |
| 2026-05-04 11:12 | 52.81185 | -41.20710 | 39264 ft | 526 kts | 72° |
| 2026-05-04 11:12 | 52.83063 | -41.09047 | 39249 ft | 523 kts | 72° |
| 2026-05-04 11:13 | 52.84906 | -40.97520 | 39242 ft | 520 kts | 72° |
| 2026-05-04 11:13 | 52.86739 | -40.85986 | 39249 ft | 517 kts | 72° |
| 2026-05-04 11:14 | 52.88556 | -40.74468 | 39257 ft | 516 kts | 72° |
| 2026-05-04 11:16 | 52.95690 | -40.28454 | 39278 ft | 516 kts | 72° |
| 2026-05-04 11:16 | 52.97449 | -40.16903 | 39307 ft | 516 kts | 72° |
| 2026-05-04 11:17 | 52.99202 | -40.05322 | 39299 ft | 517 kts | 72° |
| 2026-05-04 11:19 | 53.09734 | -39.61192 | 39307 ft | 515 kts | 64° |
| 2026-05-04 11:19 | 53.12450 | -39.50244 | 39313 ft | 515 kts | 64° |
| 2026-05-04 11:20 | 53.15164 | -39.39223 | 39311 ft | 514 kts | 64° |
| 2026-05-04 11:20 | 53.17864 | -39.28209 | 39317 ft | 513 kts | 64° |
| 2026-05-04 11:22 | 53.28106 | -38.85977 | 39324 ft | 512 kts | 64° |
| 2026-05-04 11:23 | 53.30755 | -38.74921 | 39349 ft | 512 kts | 65° |
| 2026-05-04 11:25 | 53.39926 | -38.36189 | 39343 ft | 511 kts | 65° |
| 2026-05-04 11:25 | 53.42525 | -38.25085 | 39360 ft | 511 kts | 65° |
| 2026-05-04 11:27 | 53.54048 | -37.75144 | 39372 ft | 509 kts | 66° |
| 2026-05-04 11:28 | 53.56580 | -37.64012 | 39358 ft | 509 kts | 66° |
| 2026-05-04 11:28 | 53.59096 | -37.52892 | 39360 ft | 508 kts | 66° |
| 2026-05-04 11:29 | 53.61583 | -37.41841 | 39356 ft | 507 kts | 66° |
| 2026-05-04 11:29 | 53.64072 | -37.30719 | 39379 ft | 507 kts | 67° |
| 2026-05-04 11:33 | 53.81195 | -36.52568 | 39374 ft | 507 kts | 68° |
| 2026-05-04 11:33 | 53.83603 | -36.41340 | 39383 ft | 507 kts | 68° |
| 2026-05-04 11:34 | 53.85981 | -36.30187 | 39387 ft | 507 kts | 68° |
| 2026-05-04 11:34 | 53.88365 | -36.18944 | 39379 ft | 507 kts | 68° |
| 2026-05-04 11:35 | 53.90736 | -36.07696 | 39386 ft | 506 kts | 68° |
| 2026-05-04 11:35 | 53.93099 | -35.96426 | 39388 ft | 506 kts | 69° |
| 2026-05-04 11:36 | 53.95452 | -35.85143 | 39404 ft | 506 kts | 69° |
| 2026-05-04 11:36 | 53.97793 | -35.73854 | 39392 ft | 506 kts | 69° |
| 2026-05-04 11:37 | 54.00109 | -35.62619 | 39388 ft | 506 kts | 69° |
| 2026-05-04 11:37 | 54.02427 | -35.51309 | 39392 ft | 506 kts | 69° |
| 2026-05-04 11:38 | 54.04734 | -35.39994 | 39389 ft | 506 kts | 69° |
| 2026-05-04 11:38 | 54.07031 | -35.28661 | 39398 ft | 506 kts | 69° |
| 2026-05-04 11:39 | 54.09302 | -35.17390 | 39389 ft | 506 kts | 69° |
| 2026-05-04 11:41 | 54.17214 | -34.77613 | 39392 ft | 505 kts | 70° |
| 2026-05-04 11:41 | 54.19449 | -34.66229 | 39389 ft | 505 kts | 70° |
| 2026-05-04 11:42 | 54.21672 | -34.54836 | 39390 ft | 505 kts | 70° |
| 2026-05-04 11:42 | 54.23884 | -34.43435 | 39393 ft | 505 kts | 70° |
| 2026-05-04 11:43 | 54.26089 | -34.32001 | 39396 ft | 506 kts | 70° |
| 2026-05-04 11:43 | 54.28267 | -34.20639 | 39393 ft | 506 kts | 70° |
| 2026-05-04 11:44 | 54.30450 | -34.09184 | 39396 ft | 506 kts | 70° |
| 2026-05-04 11:44 | 54.32628 | -33.97684 | 39396 ft | 506 kts | 71° |
| 2026-05-04 11:45 | 54.34791 | -33.86195 | 39404 ft | 506 kts | 71° |
| 2026-05-04 11:45 | 54.36932 | -33.74751 | 39398 ft | 506 kts | 71° |
| 2026-05-04 11:46 | 54.39072 | -33.63245 | 39399 ft | 506 kts | 71° |
| 2026-05-04 11:46 | 54.41199 | -33.51737 | 39395 ft | 506 kts | 71° |
| 2026-05-04 11:47 | 54.43318 | -33.40201 | 39394 ft | 506 kts | 71° |
| 2026-05-04 11:47 | 54.45422 | -33.28671 | 39401 ft | 506 kts | 71° |
| 2026-05-04 11:48 | 54.47516 | -33.17130 | 39398 ft | 506 kts | 71° |
| 2026-05-04 11:48 | 54.49586 | -33.05648 | 39396 ft | 505 kts | 71° |
| 2026-05-04 11:49 | 54.51657 | -32.94087 | 39398 ft | 505 kts | 71° |
| 2026-05-04 11:49 | 54.53715 | -32.82523 | 39402 ft | 505 kts | 71° |
| 2026-05-04 11:50 | 54.55763 | -32.70944 | 39398 ft | 505 kts | 72° |
| 2026-05-04 11:50 | 54.57798 | -32.59363 | 39393 ft | 505 kts | 72° |
| 2026-05-04 11:51 | 54.59822 | -32.47774 | 39391 ft | 505 kts | 72° |
| 2026-05-04 11:51 | 54.61836 | -32.36165 | 39392 ft | 504 kts | 72° |
| 2026-05-04 11:52 | 54.63837 | -32.24552 | 39382 ft | 505 kts | 72° |
| 2026-05-04 11:52 | 54.65814 | -32.13006 | 39388 ft | 504 kts | 72° |
| 2026-05-04 11:53 | 54.67795 | -32.01361 | 39389 ft | 504 kts | 72° |
| 2026-05-04 11:53 | 54.69767 | -31.89689 | 39388 ft | 504 kts | 72° |
| 2026-05-04 11:55 | 54.77516 | -31.43062 | 39380 ft | 504 kts | 73° |
| 2026-05-04 11:56 | 54.79424 | -31.31382 | 39378 ft | 504 kts | 73° |
| 2026-05-04 11:56 | 54.81324 | -31.19675 | 39379 ft | 504 kts | 73° |
| 2026-05-04 11:57 | 54.83210 | -31.07973 | 39376 ft | 504 kts | 73° |
| 2026-05-04 11:57 | 54.85083 | -30.96266 | 39373 ft | 503 kts | 73° |
| 2026-05-04 11:58 | 54.86936 | -30.84611 | 39372 ft | 503 kts | 73° |
| 2026-05-04 11:58 | 54.88788 | -30.72877 | 39375 ft | 503 kts | 73° |
| 2026-05-04 11:59 | 54.90628 | -30.61139 | 39370 ft | 503 kts | 73° |
| 2026-05-04 11:59 | 54.92454 | -30.49400 | 39367 ft | 503 kts | 74° |
| 2026-05-04 12:00 | 54.94270 | -30.37646 | 39369 ft | 503 kts | 74° |
| 2026-05-04 12:00 | 54.96075 | -30.25882 | 39369 ft | 503 kts | 74° |
| 2026-05-04 12:01 | 54.97858 | -30.14179 | 39369 ft | 503 kts | 74° |
| 2026-05-04 12:02 | 55.03894 | -29.72827 | 39362 ft | 503 kts | 75° |
| 2026-05-04 12:03 | 55.05556 | -29.60985 | 39362 ft | 502 kts | 75° |
| 2026-05-04 12:03 | 55.07204 | -29.49205 | 39358 ft | 502 kts | 75° |
| 2026-05-04 12:04 | 55.08851 | -29.37364 | 39360 ft | 502 kts | 75° |
| 2026-05-04 12:04 | 55.10488 | -29.25497 | 39355 ft | 502 kts | 75° |
| 2026-05-04 12:05 | 55.12110 | -29.13640 | 39356 ft | 502 kts | 76° |
| 2026-05-04 12:05 | 55.13722 | -29.01765 | 39353 ft | 502 kts | 76° |
| 2026-05-04 12:06 | 55.15323 | -28.89877 | 39354 ft | 502 kts | 76° |
| 2026-05-04 12:06 | 55.16912 | -28.77981 | 39353 ft | 502 kts | 76° |
| 2026-05-04 12:07 | 55.18481 | -28.66138 | 39356 ft | 502 kts | 76° |
| 2026-05-04 12:07 | 55.20047 | -28.54216 | 39339 ft | 502 kts | 76° |
| 2026-05-04 12:08 | 55.21601 | -28.42292 | 39355 ft | 502 kts | 76° |
| 2026-05-04 12:08 | 55.23142 | -28.30374 | 39355 ft | 501 kts | 76° |
| 2026-05-04 12:09 | 55.24414 | -28.20455 | 39349 ft | 501 kts | 76° |
| 2026-05-04 12:09 | 55.25933 | -28.08522 | 39343 ft | 501 kts | 76° |
| 2026-05-04 12:10 | 55.27440 | -27.96586 | 39343 ft | 501 kts | 77° |
| 2026-05-04 12:10 | 55.28935 | -27.84642 | 39343 ft | 501 kts | 77° |
| 2026-05-04 12:11 | 55.30406 | -27.72781 | 39342 ft | 500 kts | 77° |
| 2026-05-04 12:11 | 55.31877 | -27.60828 | 39350 ft | 500 kts | 77° |
| 2026-05-04 12:12 | 55.33335 | -27.48874 | 39351 ft | 500 kts | 77° |
| 2026-05-04 12:12 | 55.34779 | -27.36925 | 39340 ft | 500 kts | 77° |
| 2026-05-04 12:14 | 55.40433 | -26.89108 | 39333 ft | 500 kts | 77° |
| 2026-05-04 12:15 | 55.41821 | -26.77103 | 39339 ft | 500 kts | 78° |
| 2026-05-04 12:15 | 55.43186 | -26.65184 | 39329 ft | 500 kts | 78° |
| 2026-05-04 12:16 | 55.44548 | -26.53183 | 39335 ft | 500 kts | 78° |
| 2026-05-04 12:16 | 55.45900 | -26.41154 | 39336 ft | 500 kts | 78° |
| 2026-05-04 12:17 | 55.47239 | -26.29126 | 39331 ft | 500 kts | 78° |
| 2026-05-04 12:17 | 55.48567 | -26.17095 | 39320 ft | 500 kts | 78° |
| 2026-05-04 12:18 | 55.49875 | -26.05117 | 39323 ft | 500 kts | 78° |
| 2026-05-04 12:18 | 55.51180 | -25.93054 | 39324 ft | 500 kts | 78° |
| 2026-05-04 12:19 | 55.52472 | -25.81004 | 39326 ft | 500 kts | 78° |
| 2026-05-04 12:19 | 55.53752 | -25.68935 | 39320 ft | 499 kts | 78° |
| 2026-05-04 12:20 | 55.55019 | -25.56877 | 39319 ft | 499 kts | 79° |
| 2026-05-04 12:20 | 55.56266 | -25.44882 | 39316 ft | 499 kts | 79° |
| 2026-05-04 12:21 | 55.57510 | -25.32806 | 39318 ft | 499 kts | 79° |
| 2026-05-04 12:21 | 55.58741 | -25.20725 | 39312 ft | 499 kts | 79° |
| 2026-05-04 12:22 | 55.59960 | -25.08638 | 39298 ft | 499 kts | 79° |
| 2026-05-04 12:22 | 55.61168 | -24.96533 | 39305 ft | 498 kts | 79° |
| 2026-05-04 12:23 | 55.62355 | -24.84519 | 39303 ft | 498 kts | 79° |
| 2026-05-04 12:23 | 55.63536 | -24.72433 | 39306 ft | 498 kts | 79° |
| 2026-05-04 12:24 | 55.64707 | -24.60328 | 39303 ft | 499 kts | 79° |
| 2026-05-04 12:24 | 55.65865 | -24.48216 | 39301 ft | 499 kts | 79° |
| 2026-05-04 12:25 | 55.67011 | -24.36105 | 39297 ft | 498 kts | 79° |
| 2026-05-04 12:25 | 55.68147 | -24.23967 | 39296 ft | 499 kts | 80° |
| 2026-05-04 12:26 | 55.69270 | -24.11832 | 39293 ft | 499 kts | 80° |
| 2026-05-04 12:26 | 55.70374 | -23.99763 | 39290 ft | 499 kts | 80° |
| 2026-05-04 12:27 | 55.71473 | -23.87612 | 39285 ft | 499 kts | 80° |
| 2026-05-04 12:27 | 55.72561 | -23.75448 | 39280 ft | 499 kts | 80° |
| 2026-05-04 12:28 | 55.73638 | -23.63258 | 39283 ft | 499 kts | 80° |
| 2026-05-04 12:28 | 55.74695 | -23.51157 | 39276 ft | 499 kts | 81° |
| 2026-05-04 12:29 | 55.75748 | -23.38963 | 39277 ft | 499 kts | 81° |
| 2026-05-04 12:29 | 55.76788 | -23.26769 | 39277 ft | 499 kts | 81° |
| 2026-05-04 12:30 | 55.77815 | -23.14574 | 39277 ft | 499 kts | 81° |
| 2026-05-04 12:30 | 55.78826 | -23.02431 | 39278 ft | 499 kts | 81° |
| 2026-05-04 12:31 | 55.79828 | -22.90233 | 39270 ft | 499 kts | 81° |
| 2026-05-04 12:31 | 55.80819 | -22.78020 | 39266 ft | 499 kts | 81° |
| 2026-05-04 12:32 | 55.82283 | -22.59694 | 39259 ft | 498 kts | 81° |
| 2026-05-04 12:33 | 55.83243 | -22.47475 | 39277 ft | 498 kts | 81° |
| 2026-05-04 12:33 | 55.84185 | -22.35324 | 39260 ft | 498 kts | 81° |
| 2026-05-04 12:34 | 55.85120 | -22.23105 | 39259 ft | 498 kts | 82° |
| 2026-05-04 12:34 | 55.86043 | -22.10876 | 39256 ft | 498 kts | 82° |
| 2026-05-04 12:35 | 55.86954 | -21.98649 | 39255 ft | 498 kts | 82° |
| 2026-05-04 12:35 | 55.87845 | -21.86513 | 39258 ft | 498 kts | 82° |
| 2026-05-04 12:36 | 55.88731 | -21.74281 | 39251 ft | 498 kts | 82° |
| 2026-05-04 12:36 | 55.89605 | -21.62045 | 39248 ft | 498 kts | 82° |
| 2026-05-04 12:37 | 55.90467 | -21.49788 | 39249 ft | 498 kts | 82° |
| 2026-05-04 12:37 | 55.91317 | -21.37542 | 39251 ft | 497 kts | 82° |
| 2026-05-04 12:38 | 55.92154 | -21.25288 | 39243 ft | 497 kts | 82° |
| 2026-05-04 12:38 | 55.92979 | -21.13031 | 39242 ft | 497 kts | 82° |
| 2026-05-04 12:39 | 55.93786 | -21.00854 | 39234 ft | 497 kts | 82° |
| 2026-05-04 12:39 | 55.94586 | -20.88603 | 39234 ft | 497 kts | 82° |
| 2026-05-04 12:40 | 55.95374 | -20.76348 | 39239 ft | 497 kts | 83° |
| 2026-05-04 12:40 | 55.96150 | -20.64077 | 39237 ft | 497 kts | 83° |
| 2026-05-04 12:41 | 55.96913 | -20.51812 | 39229 ft | 497 kts | 83° |
| 2026-05-04 12:41 | 55.97660 | -20.39612 | 39231 ft | 497 kts | 83° |
| 2026-05-04 12:42 | 55.98399 | -20.27333 | 39229 ft | 497 kts | 83° |
| 2026-05-04 12:42 | 55.99127 | -20.15039 | 39227 ft | 497 kts | 83° |
| 2026-05-04 12:43 | 55.99844 | -20.02745 | 39218 ft | 497 kts | 83° |
| 2026-05-04 12:43 | 56.00263 | -19.90423 | 39225 ft | 497 kts | 87° |
| 2026-05-04 12:44 | 56.00466 | -19.78055 | 39216 ft | 498 kts | 88° |
| 2026-05-04 12:44 | 56.00653 | -19.65686 | 39218 ft | 498 kts | 88° |
| 2026-05-04 12:45 | 56.00849 | -19.53386 | 39216 ft | 498 kts | 88° |
| 2026-05-04 12:45 | 56.01047 | -19.41000 | 39207 ft | 498 kts | 88° |
| 2026-05-04 12:46 | 56.01234 | -19.28628 | 39200 ft | 498 kts | 88° |
| 2026-05-04 12:46 | 56.01408 | -19.16257 | 39200 ft | 498 kts | 88° |
| 2026-05-04 12:47 | 56.01569 | -19.03881 | 39216 ft | 498 kts | 88° |
| 2026-05-04 12:47 | 56.01716 | -18.91488 | 39201 ft | 498 kts | 88° |
| 2026-05-04 12:48 | 56.01852 | -18.79102 | 39200 ft | 498 kts | 88° |
| 2026-05-04 12:48 | 56.01975 | -18.66711 | 39191 ft | 499 kts | 88° |
| 2026-05-04 12:49 | 56.02085 | -18.54399 | 39200 ft | 499 kts | 89° |
| 2026-05-04 12:49 | 56.02184 | -18.41978 | 39202 ft | 499 kts | 89° |
| 2026-05-04 12:50 | 56.02270 | -18.29563 | 39189 ft | 499 kts | 89° |
| 2026-05-04 12:50 | 56.02344 | -18.17155 | 39187 ft | 499 kts | 89° |
| 2026-05-04 12:51 | 56.02404 | -18.04839 | 39179 ft | 498 kts | 89° |
| 2026-05-04 12:51 | 56.02453 | -17.92460 | 39177 ft | 498 kts | 89° |
| 2026-05-04 12:52 | 56.02490 | -17.80063 | 39175 ft | 497 kts | 89° |
| 2026-05-04 12:52 | 56.02513 | -17.67700 | 39187 ft | 497 kts | 89° |
| 2026-05-04 12:53 | 56.02525 | -17.55344 | 39174 ft | 497 kts | 89° |
| 2026-05-04 12:53 | 56.02524 | -17.42963 | 39182 ft | 497 kts | 89° |
| 2026-05-04 12:54 | 56.02511 | -17.30576 | 39187 ft | 498 kts | 89° |
| 2026-05-04 12:54 | 56.02485 | -17.18264 | 39176 ft | 498 kts | 89° |
| 2026-05-04 12:55 | 56.02447 | -17.05862 | 39172 ft | 498 kts | 90° |
| 2026-05-04 12:55 | 56.02397 | -16.93463 | 39180 ft | 498 kts | 90° |
| 2026-05-04 12:56 | 56.02334 | -16.81071 | 39167 ft | 499 kts | 90° |
| 2026-05-04 12:56 | 56.02272 | -16.70760 | 39168 ft | 499 kts | 90° |
| 2026-05-04 12:57 | 56.02186 | -16.58340 | 39169 ft | 499 kts | 90° |
| 2026-05-04 12:57 | 56.02088 | -16.45935 | 39167 ft | 499 kts | 90° |
| 2026-05-04 12:58 | 56.01977 | -16.33512 | 39156 ft | 499 kts | 90° |
| 2026-05-04 12:58 | 56.01854 | -16.21123 | 39167 ft | 498 kts | 90° |
| 2026-05-04 12:59 | 56.01720 | -16.08817 | 39168 ft | 498 kts | 90° |
| 2026-05-04 12:59 | 56.01572 | -15.96420 | 39159 ft | 498 kts | 91° |
| 2026-05-04 13:00 | 56.01412 | -15.84037 | 39158 ft | 498 kts | 91° |
| 2026-05-04 13:00 | 56.01240 | -15.71643 | 39158 ft | 498 kts | 91° |
| 2026-05-04 13:01 | 56.01056 | -15.59324 | 39156 ft | 498 kts | 91° |
| 2026-05-04 13:01 | 56.00859 | -15.46947 | 39152 ft | 498 kts | 91° |
| 2026-05-04 13:02 | 56.00649 | -15.34564 | 39148 ft | 498 kts | 91° |
| 2026-05-04 13:02 | 56.00427 | -15.22183 | 39150 ft | 498 kts | 91° |
| 2026-05-04 13:03 | 56.00194 | -15.09791 | 39144 ft | 498 kts | 91° |
| 2026-05-04 13:03 | 55.99957 | -14.97430 | 39145 ft | 498 kts | 91° |
| 2026-05-04 13:04 | 55.99961 | -14.85046 | 39153 ft | 498 kts | 89° |
| 2026-05-04 13:04 | 56.00055 | -14.72736 | 39145 ft | 498 kts | 89° |
| 2026-05-04 13:05 | 56.00100 | -14.60341 | 39138 ft | 499 kts | 89° |
| 2026-05-04 13:05 | 56.00103 | -14.47941 | 39139 ft | 499 kts | 89° |
| 2026-05-04 13:06 | 56.00092 | -14.35535 | 39124 ft | 499 kts | 90° |
| 2026-05-04 13:06 | 56.00071 | -14.23150 | 39137 ft | 498 kts | 90° |
| 2026-05-04 13:07 | 56.00040 | -14.10777 | 39134 ft | 498 kts | 90° |
| 2026-05-04 13:07 | 55.99522 | -13.98456 | 39130 ft | 498 kts | 100° |
| 2026-05-04 13:08 | 55.97785 | -13.86504 | 39131 ft | 497 kts | 108° |
| 2026-05-04 13:08 | 55.95708 | -13.74820 | 39132 ft | 497 kts | 108° |
| 2026-05-04 13:09 | 55.93617 | -13.63030 | 39136 ft | 498 kts | 108° |
| 2026-05-04 13:09 | 55.91545 | -13.51237 | 39130 ft | 499 kts | 108° |
| 2026-05-04 13:10 | 55.89468 | -13.39410 | 39124 ft | 500 kts | 108° |
| 2026-05-04 13:10 | 55.87382 | -13.27603 | 39126 ft | 500 kts | 108° |
| 2026-05-04 13:11 | 55.85282 | -13.15804 | 39113 ft | 498 kts | 108° |
| 2026-05-04 13:11 | 55.83192 | -13.04142 | 39126 ft | 496 kts | 108° |
| 2026-05-04 13:12 | 55.81085 | -12.92461 | 39121 ft | 496 kts | 108° |
| 2026-05-04 13:12 | 55.78966 | -12.80788 | 39118 ft | 495 kts | 108° |
| 2026-05-04 13:13 | 55.76837 | -12.69134 | 39122 ft | 495 kts | 109° |
| 2026-05-04 13:13 | 55.74712 | -12.57572 | 39116 ft | 495 kts | 109° |
| 2026-05-04 13:14 | 55.72562 | -12.45948 | 39120 ft | 496 kts | 109° |
| 2026-05-04 13:14 | 55.70397 | -12.34314 | 39114 ft | 496 kts | 109° |
| 2026-05-04 13:15 | 55.68222 | -12.22695 | 39112 ft | 496 kts | 109° |
| 2026-05-04 13:15 | 55.66041 | -12.11120 | 39114 ft | 494 kts | 109° |
| 2026-05-04 13:16 | 55.63855 | -11.99587 | 39116 ft | 493 kts | 109° |
| 2026-05-04 13:16 | 55.61662 | -11.88089 | 39111 ft | 493 kts | 109° |
| 2026-05-04 13:17 | 55.59473 | -11.76677 | 39114 ft | 492 kts | 109° |
| 2026-05-04 13:17 | 55.57263 | -11.65223 | 39115 ft | 492 kts | 109° |
| 2026-05-04 13:18 | 55.55036 | -11.53752 | 39120 ft | 493 kts | 109° |
| 2026-05-04 13:18 | 55.52800 | -11.42305 | 39117 ft | 493 kts | 109° |
| 2026-05-04 13:19 | 55.50566 | -11.30933 | 39112 ft | 493 kts | 110° |
| 2026-05-04 13:19 | 55.48307 | -11.19502 | 39120 ft | 493 kts | 110° |
| 2026-05-04 13:20 | 55.46035 | -11.08066 | 39116 ft | 494 kts | 110° |
| 2026-05-04 13:20 | 55.43753 | -10.96654 | 39114 ft | 494 kts | 110° |
| 2026-05-04 13:21 | 55.41463 | -10.85263 | 39112 ft | 493 kts | 110° |
| 2026-05-04 13:21 | 55.39157 | -10.73861 | 39110 ft | 493 kts | 110° |
| 2026-05-04 13:22 | 55.36858 | -10.62557 | 39107 ft | 493 kts | 110° |
| 2026-05-04 13:22 | 55.34536 | -10.51205 | 39116 ft | 493 kts | 110° |
| 2026-05-04 13:23 | 55.32201 | -10.39856 | 39104 ft | 492 kts | 110° |
| 2026-05-04 13:23 | 55.29868 | -10.28577 | 39107 ft | 491 kts | 110° |
| 2026-05-04 13:24 | 55.27543 | -10.17399 | 39112 ft | 490 kts | 110° |
| 2026-05-04 13:24 | 55.25200 | -10.06189 | 39107 ft | 489 kts | 110° |
| 2026-05-04 13:25 | 55.21937 | -9.89255 | 39110 ft | 489 kts | 107° |
| 2026-05-04 13:25 | 55.19941 | -9.77844 | 39108 ft | 490 kts | 107° |
| 2026-05-04 13:26 | 55.17929 | -9.66429 | 39111 ft | 491 kts | 107° |
| 2026-05-04 13:26 | 55.15902 | -9.55103 | 39113 ft | 491 kts | 107° |
| 2026-05-04 13:27 | 55.13843 | -9.43723 | 39104 ft | 490 kts | 107° |
| 2026-05-04 13:27 | 55.11777 | -9.32371 | 39115 ft | 488 kts | 107° |
| 2026-05-04 13:28 | 55.09711 | -9.21089 | 39112 ft | 487 kts | 107° |
| 2026-05-04 13:28 | 55.07640 | -9.09844 | 39115 ft | 486 kts | 107° |
| 2026-05-04 13:29 | 55.05560 | -8.98614 | 39114 ft | 486 kts | 108° |
| 2026-05-04 13:29 | 55.03468 | -8.87391 | 39111 ft | 486 kts | 108° |
| 2026-05-04 13:30 | 55.01367 | -8.76187 | 39120 ft | 486 kts | 108° |
| 2026-05-04 13:30 | 54.99265 | -8.65037 | 39109 ft | 487 kts | 108° |
| 2026-05-04 13:31 | 54.97134 | -8.53808 | 39107 ft | 488 kts | 108° |
| 2026-05-04 13:31 | 54.94995 | -8.42609 | 39128 ft | 487 kts | 108° |
| 2026-05-04 13:32 | 54.92855 | -8.31456 | 39125 ft | 485 kts | 108° |
| 2026-05-04 13:32 | 54.90723 | -8.20414 | 39120 ft | 483 kts | 108° |
| 2026-05-04 13:33 | 54.88578 | -8.09364 | 39118 ft | 483 kts | 108° |
| 2026-05-04 13:33 | 54.86417 | -7.98303 | 39104 ft | 483 kts | 108° |
| 2026-05-04 13:34 | 54.84245 | -7.87245 | 39087 ft | 484 kts | 108° |
| 2026-05-04 13:34 | 54.82061 | -7.76191 | 39089 ft | 484 kts | 108° |
| 2026-05-04 13:35 | 54.78763 | -7.59611 | 39099 ft | 485 kts | 108° |
| 2026-05-04 13:36 | 54.76565 | -7.48642 | 39094 ft | 484 kts | 108° |
| 2026-05-04 13:36 | 54.74351 | -7.37655 | 39086 ft | 482 kts | 108° |
| 2026-05-04 13:37 | 54.72139 | -7.26737 | 39082 ft | 480 kts | 108° |
| 2026-05-04 13:37 | 54.69923 | -7.15861 | 39088 ft | 478 kts | 108° |
| 2026-05-04 13:38 | 54.67699 | -7.05005 | 39085 ft | 478 kts | 108° |
| 2026-05-04 13:38 | 54.65481 | -6.94231 | 39088 ft | 479 kts | 109° |
| 2026-05-04 13:39 | 54.63235 | -6.83387 | 39085 ft | 480 kts | 109° |
| 2026-05-04 13:39 | 54.60974 | -6.72525 | 39085 ft | 481 kts | 109° |
| 2026-05-04 13:40 | 54.58700 | -6.61661 | 39082 ft | 481 kts | 109° |
| 2026-05-04 13:40 | 54.56801 | -6.52634 | 39097 ft | 481 kts | 109° |
| 2026-05-04 13:41 | 54.54137 | -6.40040 | 39094 ft | 480 kts | 109° |
| 2026-05-04 13:41 | 54.52228 | -6.31063 | 39105 ft | 481 kts | 109° |
| 2026-05-04 13:42 | 54.48756 | -6.14830 | 39103 ft | 481 kts | 109° |
| 2026-05-04 13:42 | 54.46432 | -6.04038 | 39094 ft | 482 kts | 109° |
| 2026-05-04 13:43 | 54.44094 | -5.93242 | 39094 ft | 482 kts | 109° |
| 2026-05-04 13:43 | 54.41763 | -5.82528 | 39100 ft | 481 kts | 110° |
| 2026-05-04 13:44 | 54.39408 | -5.71766 | 39092 ft | 481 kts | 109° |
| 2026-05-04 13:44 | 54.37043 | -5.61010 | 39092 ft | 481 kts | 110° |
| 2026-05-04 13:45 | 54.34671 | -5.50282 | 39082 ft | 481 kts | 109° |
| 2026-05-04 13:45 | 54.32293 | -5.39576 | 39090 ft | 480 kts | 110° |
| 2026-05-04 13:46 | 54.29905 | -5.28885 | 39091 ft | 480 kts | 110° |
| 2026-05-04 13:46 | 54.27508 | -5.18207 | 39090 ft | 480 kts | 110° |
| 2026-05-04 13:47 | 54.25101 | -5.07538 | 39084 ft | 481 kts | 110° |
| 2026-05-04 13:47 | 54.22698 | -4.96937 | 39084 ft | 481 kts | 110° |
| 2026-05-04 13:48 | 54.20267 | -4.86272 | 39077 ft | 482 kts | 110° |
| 2026-05-04 13:48 | 54.17826 | -4.75617 | 39078 ft | 482 kts | 110° |
| 2026-05-04 13:49 | 54.15369 | -4.64941 | 39070 ft | 482 kts | 110° |
| 2026-05-04 13:49 | 54.12904 | -4.54288 | 39074 ft | 482 kts | 110° |
| 2026-05-04 13:50 | 54.10439 | -4.43688 | 39075 ft | 481 kts | 110° |
| 2026-05-04 13:50 | 54.07981 | -4.33167 | 39072 ft | 480 kts | 110° |
| 2026-05-04 13:51 | 54.05499 | -4.22596 | 39070 ft | 480 kts | 110° |
| 2026-05-04 13:51 | 54.03011 | -4.12051 | 39069 ft | 480 kts | 111° |
| 2026-05-04 13:52 | 53.99262 | -3.96257 | 39073 ft | 480 kts | 111° |
| 2026-05-04 13:53 | 53.96751 | -3.85737 | 39071 ft | 480 kts | 111° |
| 2026-05-04 13:53 | 53.94329 | -3.75156 | 39067 ft | 480 kts | 109° |
| 2026-05-04 13:54 | 53.90996 | -3.59195 | 39069 ft | 481 kts | 109° |
| 2026-05-04 13:55 | 53.87541 | -3.43194 | 39071 ft | 483 kts | 109° |
| 2026-05-04 13:55 | 53.84034 | -3.27180 | 39074 ft | 483 kts | 109° |
| 2026-05-04 13:56 | 53.81688 | -3.16520 | 39075 ft | 483 kts | 109° |
| 2026-05-04 13:57 | 53.78151 | -3.00536 | 39077 ft | 483 kts | 110° |
| 2026-05-04 13:58 | 53.73396 | -2.79243 | 39055 ft | 484 kts | 110° |
| 2026-05-04 13:58 | 53.69821 | -2.63369 | 39055 ft | 484 kts | 111° |
| 2026-05-04 13:59 | 53.67419 | -2.52775 | 39056 ft | 483 kts | 111° |
| 2026-05-04 13:59 | 53.65000 | -2.42157 | 39276 ft | 485 kts | 111° |
| 2026-05-04 14:00 | 53.63787 | -2.36854 | 39517 ft | 484 kts | 111° |
| 2026-05-04 14:00 | 53.61362 | -2.26280 | 39981 ft | 483 kts | 111° |
| 2026-05-04 14:00 | 53.60150 | -2.21017 | 40159 ft | 483 kts | 111° |
| 2026-05-04 14:01 | 53.58924 | -2.15740 | 40350 ft | 484 kts | 112° |
| 2026-05-04 14:01 | 53.57690 | -2.10478 | 40518 ft | 484 kts | 112° |
| 2026-05-04 14:01 | 53.55228 | -2.00013 | 40887 ft | 484 kts | 112° |
| 2026-05-04 14:02 | 53.53983 | -1.94734 | 40974 ft | 485 kts | 112° |
| 2026-05-04 14:02 | 53.51710 | -1.84019 | 41064 ft | 487 kts | 107° |
| 2026-05-04 14:03 | 53.49851 | -1.73069 | 41062 ft | 487 kts | 106° |
| 2026-05-04 14:03 | 53.47967 | -1.62189 | 41058 ft | 487 kts | 107° |
| 2026-05-04 14:04 | 53.45042 | -1.45872 | 41065 ft | 486 kts | 107° |
| 2026-05-04 14:04 | 53.43074 | -1.35016 | 41061 ft | 486 kts | 107° |
| 2026-05-04 14:05 | 53.40164 | -1.18733 | 41061 ft | 486 kts | 107° |
| 2026-05-04 14:06 | 53.38192 | -1.07906 | 41063 ft | 485 kts | 108° |
| 2026-05-04 14:06 | 53.36184 | -0.97100 | 41059 ft | 485 kts | 108° |
| 2026-05-04 14:07 | 53.34190 | -0.86371 | 41059 ft | 486 kts | 108° |
| 2026-05-04 14:07 | 53.32179 | -0.75565 | 41053 ft | 486 kts | 108° |
| 2026-05-04 14:08 | 53.30155 | -0.64769 | 41059 ft | 486 kts | 108° |
| 2026-05-04 14:08 | 53.28116 | -0.53976 | 41046 ft | 487 kts | 108° |
| 2026-05-04 14:09 | 53.25062 | -0.37860 | 41047 ft | 487 kts | 108° |
| 2026-05-04 14:10 | 53.21984 | -0.21694 | 41055 ft | 487 kts | 108° |
| 2026-05-04 14:10 | 53.19901 | -0.10937 | 41046 ft | 487 kts | 108° |
| 2026-05-04 14:11 | 53.17813 | -0.00183 | 41053 ft | 487 kts | 109° |
| 2026-05-04 14:11 | 53.14673 | 0.15962 | 41059 ft | 488 kts | 109° |
| 2026-05-04 14:12 | 53.12569 | 0.26721 | 41056 ft | 488 kts | 109° |
| 2026-05-04 14:13 | 53.09410 | 0.42756 | 41054 ft | 488 kts | 109° |
| 2026-05-04 14:13 | 53.07281 | 0.53488 | 41050 ft | 488 kts | 109° |
| 2026-05-04 14:14 | 53.05145 | 0.64198 | 41053 ft | 488 kts | 109° |
| 2026-05-04 14:14 | 53.01933 | 0.80190 | 41052 ft | 488 kts | 109° |
| 2026-05-04 14:15 | 52.97695 | 1.01620 | 41046 ft | 489 kts | 105° |
| 2026-05-04 14:16 | 52.95747 | 1.18243 | 41051 ft | 490 kts | 101° |
| 2026-05-04 14:17 | 52.93850 | 1.34912 | 41047 ft | 490 kts | 102° |
| 2026-05-04 14:18 | 52.91888 | 1.51488 | 41048 ft | 490 kts | 102° |
| 2026-05-04 14:19 | 52.89216 | 1.73679 | 41044 ft | 491 kts | 102° |
| 2026-05-04 14:19 | 52.87868 | 1.84751 | 41035 ft | 491 kts | 102° |
| 2026-05-04 14:20 | 52.86507 | 1.95839 | 41036 ft | 491 kts | 103° |
| 2026-05-04 14:20 | 52.85146 | 2.06835 | 41028 ft | 491 kts | 103° |
| 2026-05-04 14:21 | 52.83072 | 2.23427 | 41027 ft | 491 kts | 103° |
| 2026-05-04 14:21 | 52.81676 | 2.34485 | 41027 ft | 491 kts | 103° |
| 2026-05-04 14:22 | 52.80271 | 2.45542 | 41025 ft | 491 kts | 103° |
| 2026-05-04 14:22 | 52.78852 | 2.56587 | 41018 ft | 491 kts | 103° |
| 2026-05-04 14:23 | 52.76704 | 2.73096 | 41026 ft | 492 kts | 103° |
| 2026-05-04 14:24 | 52.75259 | 2.84159 | 41016 ft | 492 kts | 103° |
| 2026-05-04 14:24 | 52.73842 | 2.95210 | 41017 ft | 492 kts | 103° |
| 2026-05-04 14:25 | 52.72431 | 3.06271 | 40999 ft | 493 kts | 103° |
| 2026-05-04 14:25 | 52.70380 | 3.22899 | 41020 ft | 493 kts | 103° |
| 2026-05-04 14:26 | 52.69011 | 3.33904 | 41019 ft | 493 kts | 103° |
| 2026-05-04 14:26 | 52.67615 | 3.44992 | 41016 ft | 493 kts | 103° |
| 2026-05-04 14:27 | 52.66443 | 3.54204 | 40994 ft | 493 kts | 103° |
| 2026-05-04 14:27 | 52.65026 | 3.65264 | 41007 ft | 494 kts | 103° |
| 2026-05-04 14:28 | 52.63596 | 3.76344 | 41009 ft | 494 kts | 104° |
| 2026-05-04 14:28 | 52.62163 | 3.87356 | 40997 ft | 494 kts | 104° |
| 2026-05-04 14:29 | 52.59251 | 4.09485 | 40984 ft | 495 kts | 104° |
| 2026-05-04 14:30 | 52.57776 | 4.20565 | 40995 ft | 496 kts | 104° |
| 2026-05-04 14:31 | 52.55543 | 4.37178 | 40996 ft | 496 kts | 104° |
| 2026-05-04 14:32 | 52.52523 | 4.59345 | 40988 ft | 497 kts | 104° |
| 2026-05-04 14:32 | 52.51000 | 4.70406 | 40978 ft | 497 kts | 104° |
| 2026-05-04 14:33 | 52.49462 | 4.81483 | 40973 ft | 497 kts | 105° |
| 2026-05-04 14:33 | 52.47929 | 4.92451 | 40980 ft | 497 kts | 105° |
| 2026-05-04 14:34 | 52.46373 | 5.03499 | 40963 ft | 497 kts | 105° |
| 2026-05-04 14:34 | 52.44807 | 5.14542 | 40990 ft | 496 kts | 105° |
| 2026-05-04 14:35 | 52.43231 | 5.25565 | 40990 ft | 496 kts | 105° |
| 2026-05-04 14:35 | 52.41646 | 5.36579 | 40993 ft | 496 kts | 105° |
| 2026-05-04 14:36 | 52.40050 | 5.47589 | 40988 ft | 496 kts | 106° |
| 2026-05-04 14:36 | 52.38457 | 5.58503 | 40990 ft | 495 kts | 106° |
| 2026-05-04 14:37 | 52.36846 | 5.69462 | 40977 ft | 495 kts | 106° |
| 2026-05-04 14:37 | 52.35225 | 5.80408 | 40969 ft | 494 kts | 106° |
| 2026-05-04 14:38 | 52.33596 | 5.91336 | 40973 ft | 494 kts | 106° |
| 2026-05-04 14:38 | 52.31954 | 6.02266 | 40957 ft | 495 kts | 106° |
| 2026-05-04 14:39 | 52.30313 | 6.13128 | 40966 ft | 495 kts | 107° |
| 2026-05-04 14:39 | 52.28650 | 6.24055 | 40963 ft | 496 kts | 107° |
| 2026-05-04 14:40 | 52.26131 | 6.40464 | 40965 ft | 497 kts | 107° |
| 2026-05-04 14:40 | 52.24437 | 6.51412 | 40958 ft | 497 kts | 107° |
| 2026-05-04 14:41 | 52.22740 | 6.62303 | 40972 ft | 498 kts | 107° |
| 2026-05-04 14:42 | 52.19291 | 6.84222 | 40973 ft | 499 kts | 107° |
| 2026-05-04 14:42 | 52.17548 | 6.95199 | 40965 ft | 500 kts | 107° |
| 2026-05-04 14:43 | 52.15888 | 7.06195 | 40975 ft | 501 kts | 102° |
| 2026-05-04 14:43 | 52.15282 | 7.17535 | 40981 ft | 504 kts | 91° |
| 2026-05-04 14:44 | 52.15723 | 7.28874 | 40988 ft | 505 kts | 86° |
| 2026-05-04 14:44 | 52.16316 | 7.40287 | 40962 ft | 506 kts | 87° |
| 2026-05-04 14:45 | 52.16870 | 7.51707 | 40968 ft | 505 kts | 87° |
| 2026-05-04 14:45 | 52.17382 | 7.63140 | 40965 ft | 505 kts | 88° |
| 2026-05-04 14:46 | 52.17873 | 7.74558 | 40964 ft | 505 kts | 88° |
| 2026-05-04 14:46 | 52.18352 | 7.85966 | 40969 ft | 505 kts | 88° |
| 2026-05-04 14:47 | 52.18824 | 7.97391 | 40954 ft | 505 kts | 88° |
| 2026-05-04 14:47 | 52.19281 | 8.08729 | 40958 ft | 505 kts | 88° |
| 2026-05-04 14:48 | 52.19732 | 8.20185 | 40966 ft | 505 kts | 88° |
| 2026-05-04 14:48 | 52.20171 | 8.31620 | 40961 ft | 506 kts | 88° |
| 2026-05-04 14:49 | 52.20600 | 8.43074 | 40949 ft | 506 kts | 88° |
| 2026-05-04 14:49 | 52.21014 | 8.54457 | 40963 ft | 506 kts | 88° |
| 2026-05-04 14:50 | 52.21421 | 8.65918 | 40968 ft | 507 kts | 88° |
| 2026-05-04 14:50 | 52.21817 | 8.77410 | 40965 ft | 507 kts | 88° |
| 2026-05-04 14:51 | 52.22203 | 8.88910 | 40962 ft | 508 kts | 89° |
| 2026-05-04 14:51 | 52.22575 | 9.00351 | 40977 ft | 508 kts | 89° |
| 2026-05-04 14:52 | 52.22939 | 9.11878 | 40959 ft | 509 kts | 89° |
| 2026-05-04 14:52 | 52.23295 | 9.23425 | 40962 ft | 509 kts | 89° |
| 2026-05-04 14:53 | 52.24026 | 9.34917 | 40968 ft | 510 kts | 83° |
| 2026-05-04 14:53 | 52.25097 | 9.46347 | 40952 ft | 510 kts | 82° |
| 2026-05-04 14:54 | 52.26155 | 9.57724 | 40950 ft | 509 kts | 83° |
| 2026-05-04 14:54 | 52.27175 | 9.69166 | 40957 ft | 509 kts | 83° |
| 2026-05-04 14:55 | 52.28171 | 9.80624 | 40967 ft | 509 kts | 83° |
| 2026-05-04 14:55 | 52.29153 | 9.92072 | 40959 ft | 509 kts | 83° |
| 2026-05-04 14:56 | 52.30127 | 10.03530 | 40963 ft | 509 kts | 83° |
| 2026-05-04 14:56 | 52.31092 | 10.15011 | 40965 ft | 510 kts | 83° |
| 2026-05-04 14:57 | 52.32041 | 10.26433 | 40980 ft | 510 kts | 83° |
| 2026-05-04 14:57 | 52.32986 | 10.37942 | 40967 ft | 511 kts | 83° |
| 2026-05-04 14:58 | 52.33921 | 10.49476 | 40959 ft | 511 kts | 83° |
| 2026-05-04 14:58 | 52.34845 | 10.61019 | 40968 ft | 512 kts | 84° |
| 2026-05-04 14:59 | 52.35759 | 10.72572 | 40967 ft | 512 kts | 84° |
| 2026-05-04 15:00 | 52.36598 | 10.89952 | 40967 ft | 510 kts | 90° |
| 2026-05-04 15:00 | 52.36772 | 11.01560 | 40966 ft | 511 kts | 90° |
| 2026-05-04 15:01 | 52.37036 | 11.18932 | 40968 ft | 511 kts | 90° |
| 2026-05-04 15:01 | 52.37229 | 11.30582 | 40965 ft | 512 kts | 90° |
| 2026-05-04 15:02 | 52.37415 | 11.42244 | 40969 ft | 511 kts | 90° |
| 2026-05-04 15:02 | 52.37588 | 11.53894 | 40960 ft | 512 kts | 90° |
| 2026-05-04 15:03 | 52.37748 | 11.65543 | 40971 ft | 512 kts | 90° |
| 2026-05-04 15:03 | 52.37895 | 11.77111 | 40966 ft | 512 kts | 90° |
| 2026-05-04 15:04 | 52.38032 | 11.88807 | 40972 ft | 512 kts | 90° |
| 2026-05-04 15:04 | 52.38158 | 12.00450 | 40962 ft | 511 kts | 90° |
| 2026-05-04 15:05 | 52.38271 | 12.12080 | 40968 ft | 510 kts | 90° |
| 2026-05-04 15:05 | 52.38374 | 12.23708 | 40976 ft | 511 kts | 90° |
| 2026-05-04 15:06 | 52.38465 | 12.35327 | 40970 ft | 511 kts | 90° |
| 2026-05-04 15:07 | 52.38579 | 12.52714 | 40961 ft | 511 kts | 90° |
| 2026-05-04 15:07 | 52.38642 | 12.64358 | 40956 ft | 510 kts | 90° |
| 2026-05-04 15:08 | 52.38693 | 12.75965 | 40954 ft | 510 kts | 90° |
| 2026-05-04 15:08 | 52.38732 | 12.87585 | 40953 ft | 510 kts | 90° |
| 2026-05-04 15:09 | 52.38761 | 12.99198 | 40952 ft | 510 kts | 90° |
| 2026-05-04 15:09 | 52.38777 | 13.10736 | 40955 ft | 509 kts | 90° |
| 2026-05-04 15:10 | 52.38782 | 13.28097 | 40965 ft | 508 kts | 91° |
| 2026-05-04 15:11 | 52.38760 | 13.45436 | 40964 ft | 507 kts | 91° |
| 2026-05-04 15:11 | 52.38732 | 13.56994 | 40958 ft | 507 kts | 91° |
| 2026-05-04 15:12 | 52.38693 | 13.68452 | 40968 ft | 506 kts | 91° |
| 2026-05-04 15:12 | 52.38642 | 13.79986 | 40960 ft | 506 kts | 91° |
| 2026-05-04 15:13 | 52.38580 | 13.91517 | 40956 ft | 506 kts | 91° |
| 2026-05-04 15:13 | 52.38507 | 14.03043 | 40938 ft | 506 kts | 91° |
| 2026-05-04 15:14 | 52.38438 | 14.12628 | 40947 ft | 506 kts | 91° |
| 2026-05-04 15:14 | 52.38345 | 14.24139 | 40940 ft | 506 kts | 91° |
| 2026-05-04 15:15 | 52.38241 | 14.35656 | 40955 ft | 506 kts | 91° |
| 2026-05-04 15:15 | 52.38126 | 14.47188 | 40937 ft | 506 kts | 91° |
| 2026-05-04 15:16 | 52.37491 | 14.64352 | 40934 ft | 504 kts | 101° |
| 2026-05-04 15:17 | 52.35574 | 14.81281 | 40933 ft | 505 kts | 102° |
| 2026-05-04 15:17 | 52.33675 | 14.98224 | 40938 ft | 505 kts | 101° |
| 2026-05-04 15:18 | 52.32423 | 15.09538 | 40933 ft | 504 kts | 101° |
| 2026-05-04 15:19 | 52.30527 | 15.26443 | 40931 ft | 504 kts | 102° |
| 2026-05-04 15:19 | 52.28613 | 15.43261 | 40933 ft | 503 kts | 102° |
| 2026-05-04 15:20 | 52.27332 | 15.54511 | 40928 ft | 504 kts | 100° |
| 2026-05-04 15:20 | 52.26724 | 15.65911 | 40947 ft | 504 kts | 93° |
| 2026-05-04 15:21 | 52.26448 | 15.77302 | 40941 ft | 505 kts | 93° |
| 2026-05-04 15:22 | 52.25980 | 15.94536 | 40938 ft | 506 kts | 94° |
| 2026-05-04 15:22 | 52.25434 | 16.11747 | 40934 ft | 506 kts | 94° |
| 2026-05-04 15:23 | 52.25053 | 16.23229 | 40932 ft | 506 kts | 94° |
| 2026-05-04 15:23 | 52.24664 | 16.34700 | 40930 ft | 506 kts | 94° |
| 2026-05-04 15:24 | 52.23856 | 16.57567 | 40929 ft | 505 kts | 94° |
| 2026-05-04 15:25 | 52.23436 | 16.68984 | 40933 ft | 504 kts | 94° |
| 2026-05-04 15:26 | 52.22786 | 16.86073 | 40937 ft | 503 kts | 94° |
| 2026-05-04 15:26 | 52.22113 | 17.03135 | 40921 ft | 502 kts | 94° |
| 2026-05-04 15:27 | 52.21416 | 17.20177 | 40927 ft | 502 kts | 95° |
| 2026-05-04 15:28 | 52.20699 | 17.37147 | 40932 ft | 502 kts | 95° |
| 2026-05-04 15:29 | 52.20925 | 17.54194 | 40923 ft | 503 kts | 81° |
| 2026-05-04 15:30 | 52.24646 | 17.93674 | 40929 ft | 504 kts | 82° |
| 2026-05-04 15:31 | 52.26144 | 18.10675 | 40913 ft | 504 kts | 81° |
| 2026-05-04 15:32 | 52.27661 | 18.27883 | 39004 ft | 511 kts | 82° |
| 2026-05-04 15:32 | 52.28657 | 18.39381 | 37458 ft | 511 kts | 82° |
| 2026-05-04 15:33 | 52.29631 | 18.50764 | 36013 ft | 509 kts | 82° |
| 2026-05-04 15:34 | 52.31088 | 18.68023 | 33337 ft | 515 kts | 82° |
| 2026-05-04 15:34 | 52.31575 | 18.73833 | 32296 ft | 516 kts | 82° |
| 2026-05-04 15:34 | 52.32551 | 18.85518 | 30307 ft | 518 kts | 82° |
| 2026-05-04 15:35 | 52.33494 | 18.97055 | 28717 ft | 506 kts | 84° |
| 2026-05-04 15:35 | 52.33834 | 19.02742 | 27962 ft | 500 kts | 86° |
| 2026-05-04 15:35 | 52.34092 | 19.08376 | 27219 ft | 494 kts | 86° |
| 2026-05-04 15:36 | 52.34616 | 19.19401 | 25730 ft | 483 kts | 86° |
| 2026-05-04 15:36 | 52.34900 | 19.24845 | 25011 ft | 477 kts | 86° |
| 2026-05-04 15:36 | 52.35173 | 19.30229 | 24299 ft | 472 kts | 86° |
| 2026-05-04 15:37 | 52.35435 | 19.35560 | 23593 ft | 467 kts | 86° |
| 2026-05-04 15:37 | 52.35688 | 19.40831 | 22775 ft | 463 kts | 86° |
| 2026-05-04 15:37 | 52.35937 | 19.46052 | 22015 ft | 457 kts | 86° |
| 2026-05-04 15:37 | 52.36183 | 19.51221 | 21311 ft | 452 kts | 86° |
| 2026-05-04 15:38 | 52.36423 | 19.56316 | 20621 ft | 447 kts | 86° |
| 2026-05-04 15:38 | 52.36656 | 19.61300 | 19939 ft | 443 kts | 86° |
| 2026-05-04 15:38 | 52.36889 | 19.66312 | 19314 ft | 438 kts | 86° |
| 2026-05-04 15:38 | 52.37115 | 19.71204 | 19149 ft | 422 kts | 86° |
| 2026-05-04 15:39 | 52.37335 | 19.75915 | 18963 ft | 408 kts | 85° |
| 2026-05-04 15:39 | 52.37894 | 19.80381 | 18678 ft | 396 kts | 70° |
| 2026-05-04 15:39 | 52.40014 | 19.88598 | 18100 ft | 388 kts | 66° |
| 2026-05-04 15:40 | 52.41060 | 19.92606 | 17781 ft | 387 kts | 66° |
| 2026-05-04 15:40 | 52.42092 | 19.96659 | 17450 ft | 385 kts | 68° |
| 2026-05-04 15:40 | 52.43100 | 20.00703 | 17150 ft | 383 kts | 68° |
| 2026-05-04 15:40 | 52.44094 | 20.04741 | 16850 ft | 381 kts | 68° |
| 2026-05-04 15:41 | 52.45079 | 20.08772 | 16551 ft | 380 kts | 68° |
| 2026-05-04 15:41 | 52.46057 | 20.12790 | 16257 ft | 379 kts | 68° |
| 2026-05-04 15:41 | 52.47031 | 20.16800 | 15968 ft | 378 kts | 68° |
| 2026-05-04 15:41 | 52.48005 | 20.20813 | 15673 ft | 378 kts | 69° |
| 2026-05-04 15:42 | 52.48976 | 20.24821 | 15375 ft | 377 kts | 69° |
| 2026-05-04 15:42 | 52.49941 | 20.28820 | 15092 ft | 375 kts | 69° |
| 2026-05-04 15:42 | 52.50521 | 20.32932 | 14773 ft | 371 kts | 91° |
| 2026-05-04 15:42 | 52.50151 | 20.37100 | 14511 ft | 369 kts | 111° |
| 2026-05-04 15:43 | 52.49088 | 20.40816 | 14241 ft | 362 kts | 124° |
| 2026-05-04 15:43 | 52.47821 | 20.44375 | 13967 ft | 362 kts | 124° |
| 2026-05-04 15:43 | 52.46539 | 20.47943 | 13665 ft | 363 kts | 124° |
| 2026-05-04 15:43 | 52.45266 | 20.51504 | 13355 ft | 359 kts | 124° |
| 2026-05-04 15:44 | 52.44022 | 20.55020 | 13054 ft | 353 kts | 124° |
| 2026-05-04 15:44 | 52.42805 | 20.58478 | 12778 ft | 348 kts | 124° |
| 2026-05-04 15:44 | 52.41599 | 20.61913 | 12509 ft | 347 kts | 124° |
| 2026-05-04 15:44 | 52.40401 | 20.65328 | 12227 ft | 345 kts | 124° |
| 2026-05-04 15:45 | 52.39204 | 20.68734 | 11961 ft | 344 kts | 123° |
| 2026-05-04 15:45 | 52.38007 | 20.72132 | 11662 ft | 345 kts | 123° |
| 2026-05-04 15:45 | 52.36808 | 20.75534 | 11345 ft | 345 kts | 123° |
| 2026-05-04 15:45 | 52.35610 | 20.78945 | 11040 ft | 344 kts | 123° |
| 2026-05-04 15:46 | 52.34414 | 20.82323 | 10761 ft | 341 kts | 123° |
| 2026-05-04 15:46 | 52.33237 | 20.85642 | 10437 ft | 335 kts | 123° |
| 2026-05-04 15:46 | 52.32077 | 20.88912 | 10124 ft | 329 kts | 123° |
| 2026-05-04 15:46 | 52.30936 | 20.92130 | 9842 ft | 324 kts | 123° |
| 2026-05-04 15:47 | 52.29834 | 20.95240 | 9678 ft | 306 kts | 124° |
| 2026-05-04 15:47 | 52.28803 | 20.98143 | 9307 ft | 292 kts | 124° |
| 2026-05-04 15:47 | 52.27795 | 21.00969 | 8982 ft | 285 kts | 124° |
| 2026-05-04 15:47 | 52.26540 | 21.03409 | 8702 ft | 280 kts | 150° |
| 2026-05-04 15:48 | 52.24853 | 21.04885 | 8483 ft | 275 kts | 158° |
| 2026-05-04 15:48 | 52.23129 | 21.06323 | 8231 ft | 279 kts | 156° |
| 2026-05-04 15:48 | 52.19740 | 21.09247 | 7717 ft | 272 kts | 156° |
| 2026-05-04 15:49 | 52.18080 | 21.10678 | 7508 ft | 269 kts | 156° |
| 2026-05-04 15:49 | 52.16424 | 21.12102 | 7310 ft | 270 kts | 156° |
| 2026-05-04 15:49 | 52.14758 | 21.13533 | 7082 ft | 271 kts | 155° |
| 2026-05-04 15:49 | 52.13088 | 21.14990 | 6853 ft | 273 kts | 155° |
| 2026-05-04 15:50 | 52.11418 | 21.16455 | 6599 ft | 273 kts | 155° |
| 2026-05-04 15:50 | 52.09766 | 21.17903 | 6351 ft | 272 kts | 155° |
| 2026-05-04 15:50 | 52.08078 | 21.19381 | 6098 ft | 271 kts | 155° |
| 2026-05-04 15:50 | 52.06442 | 21.20814 | 5821 ft | 270 kts | 155° |
| 2026-05-04 15:51 | 52.04801 | 21.22248 | 5572 ft | 266 kts | 155° |
| 2026-05-04 15:51 | 52.03179 | 21.23663 | 5322 ft | 263 kts | 155° |
| 2026-05-04 15:51 | 52.01576 | 21.25057 | 5098 ft | 260 kts | 155° |
| 2026-05-04 15:51 | 52.00005 | 21.26422 | 4982 ft | 251 kts | 155° |
| 2026-05-04 15:52 | 51.98501 | 21.27718 | 4913 ft | 243 kts | 155° |
| 2026-05-04 15:52 | 51.97017 | 21.28996 | 4840 ft | 240 kts | 155° |
| 2026-05-04 15:52 | 51.95548 | 21.30258 | 4790 ft | 238 kts | 155° |
| 2026-05-04 15:52 | 51.94073 | 21.31529 | 4602 ft | 242 kts | 155° |
| 2026-05-04 15:53 | 51.92584 | 21.32804 | 4348 ft | 241 kts | 155° |
| 2026-05-04 15:53 | 51.91090 | 21.33954 | 4068 ft | 232 kts | 168° |
| 2026-05-04 15:53 | 51.89528 | 21.33888 | 3824 ft | 226 kts | 204° |
| 2026-05-04 15:53 | 51.88234 | 21.32505 | 3592 ft | 224 kts | 228° |
| 2026-05-04 15:54 | 51.87331 | 21.30468 | 3366 ft | 224 kts | 241° |
| 2026-05-04 15:54 | 51.86602 | 21.28257 | 3149 ft | 219 kts | 246° |
| 2026-05-04 15:54 | 51.86320 | 21.25897 | 3071 ft | 218 kts | 277° |
| 2026-05-04 15:54 | 51.86945 | 21.23672 | 3029 ft | 223 kts | 310° |
| 2026-05-04 15:55 | 51.88140 | 21.22104 | 3033 ft | 226 kts | 320° |
| 2026-05-04 15:55 | 51.89439 | 21.20574 | 3024 ft | 228 kts | 322° |
| 2026-05-04 15:55 | 51.90765 | 21.19212 | 3030 ft | 229 kts | 326° |
| 2026-05-04 15:55 | 51.92162 | 21.17937 | 3023 ft | 230 kts | 327° |
| 2026-05-04 15:56 | 51.93571 | 21.16708 | 3027 ft | 230 kts | 328° |
| 2026-05-04 15:56 | 51.94983 | 21.15486 | 3028 ft | 230 kts | 328° |
| 2026-05-04 15:56 | 51.96398 | 21.14263 | 3025 ft | 231 kts | 328° |
| 2026-05-04 15:56 | 51.97811 | 21.13045 | 3029 ft | 229 kts | 328° |
| 2026-05-04 15:57 | 51.99216 | 21.11823 | 3030 ft | 228 kts | 328° |
| 2026-05-04 15:57 | 52.00610 | 21.10608 | 3037 ft | 229 kts | 328° |
| 2026-05-04 15:57 | 52.01999 | 21.09409 | 3020 ft | 220 kts | 328° |
| 2026-05-04 15:57 | 52.03312 | 21.08273 | 2980 ft | 207 kts | 328° |
| 2026-05-04 15:58 | 52.04149 | 21.07542 | 2836 ft | 206 kts | 328° |
| 2026-05-04 15:58 | 52.05394 | 21.06459 | 2587 ft | 198 kts | 328° |
| 2026-05-04 15:58 | 52.06936 | 21.05120 | 2220 ft | 183 kts | 328° |
| 2026-05-04 15:58 | 52.08034 | 21.04163 | 1966 ft | 173 kts | 327° |
| 2026-05-04 15:59 | 52.09062 | 21.03269 | 1761 ft | 163 kts | 327° |
| 2026-05-04 15:59 | 52.09729 | 21.02685 | 1617 ft | 158 kts | 326° |
| 2026-05-04 15:59 | 52.10645 | 21.01886 | 1410 ft | 141 kts | 325° |
| 2026-05-04 15:59 | 52.11469 | 21.01173 | 1264 ft | 133 kts | 324° |
| 2026-05-04 16:00 | 52.12290 | 21.00444 | 1137 ft | 137 kts | 326° |
| 2026-05-04 16:00 | 52.13139 | 20.99707 | 931 ft | 139 kts | 327° |
| 2026-05-04 16:00 | 52.13998 | 20.98973 | 692 ft | 139 kts | 324° |
| 2026-05-04 16:00 | 52.14833 | 20.98230 | 524 ft | 136 kts | 324° |
| 2026-05-04 16:01 | 52.15683 | 20.97490 | 380 ft | 140 kts | 328° |
| 2026-05-04 16:01 | 52.16454 | 20.96806 | 358 ft | 111 kts | 333° |
| 2026-05-04 16:01 | 52.16990 | 20.96349 | 362 ft | 72 kts | 332° |
| 2026-05-04 16:01 | 52.17295 | 20.96244 | 361 ft | 29 kts | 3° |
| 2026-05-04 16:02 | 52.17371 | 20.96263 | 363 ft | 8 kts | 27° |
| 2026-05-04 16:02 | 52.17408 | 20.96334 | 365 ft | 8 kts | 57° |
| 2026-05-04 16:02 | 52.17467 | 20.96511 | 361 ft | 11 kts | 71° |
| 2026-05-04 16:03 | 52.17425 | 20.96605 | 358 ft | 11 kts | 148° |
| 2026-05-04 16:03 | 52.17356 | 20.96667 | 365 ft | 11 kts | 152° |
| 2026-05-04 16:03 | 52.17302 | 20.96726 | 364 ft | 6 kts | 120° |
| 2026-05-04 16:03 | 52.17311 | 20.96783 | 365 ft | 4 kts | 60° |
| 2026-05-04 16:04 | 52.17327 | 20.96836 | 363 ft | 0 kts | 64° |